Port Alto, Texas
Current Conditions -  °F | °C
As of 5:15 PM on Wednesday 22 Oct 2014 (Local Time) from KPKV Reporting Station
Clear Clear  
Wind Chill: 79°   Ceiling: Unl
Heat Index: 81°   Visibility: 10mi
Dew Point: 66°   Wind: 14mph
Humidity: 65%   Direction: 130°SE
Pressure: 30.01"   Gusts: NA
Location:  28.5342°N, 96.663°W
Report Text: KPKV 222215Z AUTO 13012KT 10SM CLR 26/19 A3001 RMK AO2 T02590189
Loading
Personal Weather Stations






























Interactive Weather Map
Tropical Storm Tracking
New forecast layout! Learn more

10-Day Weather Forecast

Advertisements
Track Severe Weather on mobile